Time;durP1;ratioP1;P1;durP2;ratioP2;P2;SDS_P1;SDS_P2;PMS_P1;PMS_P2;Temp;Humidity;BMP_temperature;BMP_pressure;BME280_temperature;BME280_humidity;BME280_pressure;Samples;Min_cycle;Max_cycle;Signal;HPM_P1;HPM_P2
2022/10/16 00:00:36;;;;;;;25.30;15.70;;;22.90;59.80;;;;;;4997244;28;20028;-84
2022/10/16 00:03:03;;;;;;;20.80;14.80;;;22.90;59.70;;;;;;5017853;28;20038;-84
2022/10/16 00:05:29;;;;;;;20.45;15.05;;;22.70;59.10;;;;;;5000189;28;20022;-85
2022/10/16 00:07:55;;;;;;;20.55;14.65;;;22.70;59.60;;;;;;5018001;28;20080;-83
2022/10/16 00:10:21;;;;;;;22.02;13.52;;;22.60;59.30;;;;;;5000269;28;20381;-85
2022/10/16 00:12:46;;;;;;;21.25;13.05;;;22.60;58.90;;;;;;5000219;28;20036;-86
2022/10/16 00:15:12;;;;;;;19.73;13.05;;;22.30;59.00;;;;;;5017826;28;20028;-86
2022/10/16 00:17:38;;;;;;;18.75;13.07;;;21.60;60.40;;;;;;5017597;28;20436;-86
2022/10/16 00:20:04;;;;;;;17.10;12.80;;;21.20;61.50;;;;;;5017684;28;20026;-82
2022/10/16 00:22:30;;;;;;;18.35;12.43;;;21.00;61.90;;;;;;4999438;28;20140;-84
2022/10/16 00:24:56;;;;;;;15.80;11.98;;;21.00;61.40;;;;;;5000001;28;20109;-83
2022/10/16 00:27:22;;;;;;;18.02;12.57;;;21.00;61.90;;;;;;5017418;28;20090;-82
2022/10/16 00:29:52;;;;;;;19.02;12.77;;;20.90;61.90;;;;;;4999927;28;20029;-86
2022/10/16 00:32:18;;;;;;;17.70;12.88;;;20.90;62.10;;;;;;5017674;28;20354;-85
2022/10/16 00:34:44;;;;;;;16.58;12.93;;;20.90;62.30;;;;;;5000051;28;20022;-84
2022/10/16 00:37:10;;;;;;;20.27;13.25;;;20.70;62.80;;;;;;5016255;28;20400;-84
2022/10/16 00:39:35;;;;;;;18.65;12.30;;;20.70;63.00;;;;;;5016060;28;20133;-87
2022/10/16 00:42:01;;;;;;;19.75;12.38;;;20.70;63.30;;;;;;5016045;28;20037;-86
2022/10/16 00:44:47;;;;;;;16.50;11.93;;;20.40;63.90;;;;;;5017057;28;20060;-84
2022/10/16 00:47:21;;;;;;;17.40;12.20;;;20.30;64.10;;;;;;5017005;28;20057;-85
2022/10/16 00:49:49;;;;;;;20.42;12.48;;;20.10;64.40;;;;;;4999979;28;20018;-87
2022/10/16 00:52:16;;;;;;;17.60;12.10;;;20.00;64.40;;;;;;5016961;28;20033;-86
2022/10/16 00:54:41;;;;;;;16.25;11.15;;;19.90;65.00;;;;;;4999543;28;20025;-88
2022/10/16 00:57:08;;;;;;;16.70;10.57;;;19.60;64.70;;;;;;4999393;28;20037;-85
2022/10/16 00:59:39;;;;;;;16.48;10.65;;;19.60;64.50;;;;;;5016940;28;20022;-88
2022/10/16 01:02:11;;;;;;;15.77;10.95;;;19.70;64.00;;;;;;4999181;28;20041;-88
2022/10/16 01:04:50;;;;;;;16.80;10.75;;;19.70;64.00;;;;;;5016568;28;20057;-85
2022/10/16 01:07:30;;;;;;;17.38;11.63;;;19.60;63.80;;;;;;5016818;28;20030;-87
2022/10/16 01:09:56;;;;;;;;;;;19.70;63.90;;;;;;5017099;28;20041;-83
2022/10/16 01:12:50;;;;;;;22.50;12.43;;;20.00;63.70;;;;;;4998088;28;19905;-86
2022/10/16 01:15:16;;;;;;;20.08;12.90;;;20.20;64.00;;;;;;4999208;28;20467;-85
2022/10/16 01:17:49;;;;;;;21.63;12.15;;;20.40;63.50;;;;;;5016131;28;20041;-84
2022/10/16 01:20:27;;;;;;;16.92;12.23;;;20.90;62.00;;;;;;4998955;28;20029;-84
2022/10/16 01:23:02;;;;;;;17.52;11.57;;;21.20;61.20;;;;;;4998690;28;20034;-84
2022/10/16 01:25:53;;;;;;;16.00;12.27;;;21.40;61.00;;;;;;4998922;28;20025;-84
2022/10/16 01:28:22;;;;;;;17.63;11.40;;;21.70;60.10;;;;;;4998884;28;20076;-85
2022/10/16 01:30:54;;;;;;;18.33;12.15;;;21.90;59.70;;;;;;5016073;28;20088;-84
2022/10/16 01:33:24;;;;;;;17.40;11.38;;;22.00;59.60;;;;;;4998405;28;20029;-83
2022/10/16 01:35:58;;;;;;;16.25;11.82;;;22.20;58.90;;;;;;5016101;28;20030;-83
2022/10/16 01:38:37;;;;;;;15.93;10.88;;;22.30;58.90;;;;;;4998742;28;20370;-84
2022/10/16 01:41:12;;;;;;;18.50;12.18;;;22.40;58.80;;;;;;4998670;28;20370;-84
2022/10/16 01:43:47;;;;;;;16.48;10.80;;;22.20;58.20;;;;;;4998573;28;20439;-85
2022/10/16 01:46:15;;;;;;;15.35;10.88;;;22.10;58.80;;;;;;4998490;28;20076;-84
2022/10/16 01:48:41;;;;;;;16.85;10.02;;;22.20;58.60;;;;;;5015897;28;20029;-85
2022/10/16 01:51:11;;;;;;;14.73;10.45;;;21.90;58.50;;;;;;4998353;28;20041;-84
2022/10/16 01:53:37;;;;;;;15.15;10.93;;;21.90;59.00;;;;;;5015820;28;20452;-84
2022/10/16 01:56:08;;;;;;;16.52;10.32;;;22.10;59.10;;;;;;4998783;28;20030;-83
2022/10/16 01:58:39;;;;;;;16.48;11.18;;;21.90;58.90;;;;;;4998310;28;20084;-84
2022/10/16 02:01:09;;;;;;;19.85;12.05;;;21.90;59.30;;;;;;4998131;28;20041;-84
2022/10/16 02:03:37;;;;;;;14.52;11.27;;;22.20;58.80;;;;;;5015829;28;20028;-85
2022/10/16 02:06:03;;;;;;;16.63;11.00;;;22.20;59.00;;;;;;4998256;28;20061;-87
2022/10/16 02:08:30;;;;;;;15.25;10.10;;;22.20;57.90;;;;;;5014434;28;20062;-85
2022/10/16 02:10:57;;;;;;;17.75;11.35;;;22.00;58.70;;;;;;4998238;28;20100;-84
2022/10/16 02:13:34;;;;;;;17.35;11.00;;;21.90;58.90;;;;;;4998287;28;20057;-83
2022/10/16 02:16:00;;;;;;;14.50;10.77;;;21.60;59.20;;;;;;4998218;28;20369;-84
2022/10/16 02:18:29;;;;;;;16.83;10.82;;;20.90;60.40;;;;;;4994442;28;20055;-86
2022/10/16 02:21:02;;;;;;;13.15;10.35;;;20.60;61.00;;;;;;4994575;28;20037;-83
2022/10/16 02:23:42;;;;;;;16.63;11.02;;;20.50;61.60;;;;;;4994479;28;20042;-89
2022/10/16 02:26:11;;;;;;;18.08;10.48;;;20.30;61.60;;;;;;4994836;28;20026;-88
2022/10/16 02:28:53;;;;;;;16.75;11.02;;;20.20;62.10;;;;;;4995741;28;20497;-87
2022/10/16 02:31:26;;;;;;;17.83;11.02;;;19.90;62.70;;;;;;4994539;28;20502;-87
2022/10/16 02:33:54;;;;;;;18.48;11.52;;;19.90;63.00;;;;;;4995605;28;20369;-88
2022/10/16 02:36:21;;;;;;;17.23;10.90;;;20.00;63.30;;;;;;4994404;28;20032;-88
2022/10/16 02:38:47;;;;;;;16.75;10.52;;;20.00;63.00;;;;;;4994319;28;20086;-84
2022/10/16 02:41:14;;;;;;;15.95;10.70;;;20.50;62.50;;;;;;4995316;28;20426;-84
2022/10/16 02:43:39;;;;;;;14.82;10.38;;;20.90;61.20;;;;;;4995403;28;20141;-83
2022/10/16 02:46:05;;;;;;;14.90;10.50;;;21.10;60.10;;;;;;4994200;28;20116;-83
2022/10/16 02:48:31;;;;;;;15.50;10.57;;;21.20;60.10;;;;;;4994210;28;20060;-88
2022/10/16 02:50:57;;;;;;;14.27;10.23;;;21.20;59.50;;;;;;4995276;28;20038;-87
2022/10/16 02:53:23;;;;;;;15.07;9.93;;;21.00;59.70;;;;;;4994208;28;20034;-82
2022/10/16 02:55:48;;;;;;;19.23;10.23;;;20.90;60.30;;;;;;4995193;28;20036;-86
2022/10/16 02:58:14;;;;;;;13.43;10.60;;;20.60;60.50;;;;;;4993836;28;20022;-85
2022/10/16 03:00:39;;;;;;;14.30;9.60;;;20.20;61.50;;;;;;4994082;28;20493;-87
2022/10/16 03:03:05;;;;;;;15.30;10.20;;;19.70;62.50;;;;;;4995303;28;20512;-86
2022/10/16 03:05:31;;;;;;;15.27;11.25;;;19.60;63.20;;;;;;4994199;28;20373;-86
2022/10/16 03:07:59;;;;;;;15.65;10.30;;;19.70;63.00;;;;;;4994086;28;20034;-85
2022/10/16 03:10:25;;;;;;;16.38;10.45;;;19.80;63.10;;;;;;4994920;28;20109;-85
2022/10/16 03:12:51;;;;;;;14.63;10.57;;;20.00;62.00;;;;;;4993732;28;20442;-84
2022/10/16 03:15:16;;;;;;;18.25;11.23;;;20.30;61.70;;;;;;4993482;28;20019;-82
2022/10/16 03:17:43;;;;;;;16.63;11.15;;;20.60;60.90;;;;;;5004701;28;20066;-84
2022/10/16 03:20:09;;;;;;;15.43;10.82;;;20.80;60.10;;;;;;4996732;28;20377;-84
2022/10/16 03:22:34;;;;;;;17.33;11.02;;;20.90;60.30;;;;;;4996298;28;20037;-83
2022/10/16 03:25:00;;;;;;;17.52;10.43;;;20.90;60.20;;;;;;5014403;28;20087;-85
2022/10/16 03:27:26;;;;;;;15.10;10.77;;;20.60;61.10;;;;;;5013175;28;20081;-84
2022/10/16 03:29:51;;;;;;;15.57;11.02;;;20.30;62.00;;;;;;5013083;28;20022;-84
2022/10/16 03:32:18;;;;;;;15.57;10.93;;;20.20;62.20;;;;;;5013061;28;20075;-84
2022/10/16 03:34:43;;;;;;;16.52;11.32;;;20.00;62.40;;;;;;5013987;28;20499;-84
2022/10/16 03:37:09;;;;;;;16.92;11.38;;;19.80;63.10;;;;;;4996415;28;20030;-86
2022/10/16 03:39:35;;;;;;;18.15;11.90;;;19.70;63.10;;;;;;5013059;28;20032;-85
2022/10/16 03:42:00;;;;;;;16.92;12.18;;;19.70;63.20;;;;;;5012988;28;20033;-84
2022/10/16 03:44:26;;;;;;;17.40;11.57;;;19.90;63.20;;;;;;5014075;28;20473;-84
2022/10/16 03:46:52;;;;;;;18.45;12.30;;;20.20;62.50;;;;;;4996925;28;20022;-83
2022/10/16 03:49:17;;;;;;;21.92;12.65;;;20.40;61.60;;;;;;5013051;28;20389;-82
2022/10/16 03:51:43;;;;;;;19.58;13.30;;;20.70;60.90;;;;;;5013975;28;20392;-82
2022/10/16 03:54:10;;;;;;;16.05;12.07;;;20.90;60.20;;;;;;4996334;28;20053;-85
2022/10/16 03:56:36;;;;;;;16.80;11.38;;;20.80;60.40;;;;;;5014021;28;20029;-83
2022/10/16 03:59:01;;;;;;;14.75;11.23;;;20.60;60.30;;;;;;4996534;28;20022;-82
2022/10/16 04:01:27;;;;;;;16.00;10.55;;;20.50;60.40;;;;;;4996649;28;20030;-85
2022/10/16 04:03:52;;;;;;;15.40;10.68;;;20.10;60.60;;;;;;5013915;28;20026;-86
2022/10/16 04:06:18;;;;;;;13.98;10.27;;;19.50;61.70;;;;;;4996556;28;20547;-85
2022/10/16 04:08:44;;;;;;;15.98;10.90;;;19.00;62.80;;;;;;5014120;28;20481;-84
2022/10/16 04:11:10;;;;;;;15.20;11.15;;;19.00;63.40;;;;;;4996521;28;20053;-84
2022/10/16 04:13:36;;;;;;;17.55;11.32;;;19.40;62.80;;;;;;5013817;28;20142;-82
2022/10/16 04:16:02;;;;;;;16.50;11.50;;;20.00;61.30;;;;;;4996388;28;20397;-83
2022/10/16 04:18:27;;;;;;;17.17;11.23;;;20.50;60.00;;;;;;5013809;28;20103;-83
2022/10/16 04:20:54;;;;;;;15.60;11.55;;;20.80;58.90;;;;;;4995989;28;20026;-84
2022/10/16 04:23:19;;;;;;;17.98;11.85;;;20.90;58.60;;;;;;4996176;28;20489;-84
2022/10/16 04:25:45;;;;;;;17.52;12.10;;;21.10;58.40;;;;;;5012360;28;20065;-84
2022/10/16 04:28:11;;;;;;;16.90;11.63;;;21.20;58.10;;;;;;4996253;28;20496;-85
2022/10/16 04:30:39;;;;;;;17.73;12.13;;;21.20;57.80;;;;;;4995917;28;20072;-83
2022/10/16 04:33:04;;;;;;;18.90;12.75;;;21.20;57.80;;;;;;5013601;28;20361;-83
2022/10/16 04:35:30;;;;;;;18.65;12.38;;;21.30;57.70;;;;;;4996046;28;20543;-82
2022/10/16 04:37:58;;;;;;;17.25;12.57;;;21.30;57.40;;;;;;5011951;28;20397;-83
2022/10/16 04:40:23;;;;;;;16.83;12.50;;;21.20;57.40;;;;;;5012833;28;20500;-83
2022/10/16 04:42:49;;;;;;;18.48;12.73;;;21.10;57.50;;;;;;5013059;28;20034;-82
2022/10/16 04:45:15;;;;;;;19.98;13.93;;;21.00;57.50;;;;;;4995890;28;20103;-79
2022/10/16 04:47:40;;;;;;;20.55;13.50;;;20.90;57.80;;;;;;4998436;28;20092;-83
2022/10/16 04:50:07;;;;;;;15.73;12.00;;;20.80;58.00;;;;;;5017100;28;20022;-84
2022/10/16 04:52:32;;;;;;;15.95;11.50;;;20.50;58.60;;;;;;5017254;28;20612;-86
2022/10/16 04:55:01;;;;;;;17.23;12.98;;;19.70;60.70;;;;;;4999267;28;20121;-85
2022/10/16 04:57:27;;;;;;;17.80;12.10;;;19.50;61.00;;;;;;4999415;28;20034;-84
2022/10/16 04:59:53;;;;;;;21.70;13.40;;;19.80;60.10;;;;;;4999484;28;20022;-84
2022/10/16 05:02:19;;;;;;;19.05;14.38;;;19.90;59.60;;;;;;5017047;28;20370;-84
2022/10/16 05:04:44;;;;;;;19.98;14.48;;;20.10;59.00;;;;;;5016718;28;20018;-85
2022/10/16 05:07:10;;;;;;;20.67;14.82;;;20.20;58.90;;;;;;4998999;28;20030;-84
2022/10/16 05:09:36;;;;;;;22.27;15.10;;;20.20;59.00;;;;;;5015760;28;20026;-84
2022/10/16 05:12:03;;;;;;;22.13;14.73;;;19.90;59.50;;;;;;5016573;28;20033;-82
2022/10/16 05:14:29;;;;;;;20.58;14.35;;;19.90;59.70;;;;;;4998906;28;20473;-83
2022/10/16 05:16:55;;;;;;;26.25;15.27;;;19.70;59.80;;;;;;5016444;28;20037;-84
2022/10/16 05:19:20;;;;;;;20.88;14.30;;;19.60;59.90;;;;;;4998977;28;20030;-85
2022/10/16 05:21:46;;;;;;;21.35;14.75;;;19.60;59.90;;;;;;4999046;28;20044;-84
2022/10/16 05:24:12;;;;;;;23.52;15.23;;;19.70;59.70;;;;;;5016373;28;20126;-83
2022/10/16 05:26:37;;;;;;;23.33;14.98;;;19.70;59.90;;;;;;5016311;28;20029;-84
2022/10/16 05:29:03;;;;;;;23.60;15.80;;;19.80;59.90;;;;;;5016455;28;20026;-84
2022/10/16 05:31:29;;;;;;;22.77;15.55;;;19.80;59.90;;;;;;4999017;28;20018;-84
2022/10/16 05:34:01;;;;;;;21.50;14.90;;;19.90;59.70;;;;;;4998839;28;20484;-84
2022/10/16 05:36:27;;;;;;;20.67;14.07;;;20.00;59.20;;;;;;4999038;28;20477;-85
2022/10/16 05:38:53;;;;;;;19.67;14.45;;;20.10;59.30;;;;;;4998733;28;20088;-84
2022/10/16 05:41:21;;;;;;;22.85;14.13;;;20.00;59.40;;;;;;4998624;28;20476;-86
2022/10/16 05:43:47;;;;;;;19.98;13.45;;;20.10;59.60;;;;;;5016483;28;20036;-86
2022/10/16 05:46:20;;;;;;;19.92;14.10;;;20.10;59.70;;;;;;5016283;28;20093;-86
2022/10/16 05:48:46;;;;;;;19.27;13.52;;;20.10;59.80;;;;;;4998570;28;20376;-87
2022/10/16 05:51:14;;;;;;;18.77;13.43;;;20.10;59.80;;;;;;5014730;28;20503;-84
2022/10/16 05:53:41;;;;;;;17.55;13.27;;;20.00;59.90;;;;;;4998831;28;20053;-85
2022/10/16 05:56:10;;;;;;;20.95;14.30;;;19.80;60.40;;;;;;4998327;28;20374;-85
2022/10/16 05:58:37;;;;;;;19.15;13.75;;;20.00;60.00;;;;;;4998036;28;20021;-84
2022/10/16 06:01:11;;;;;;;19.27;12.23;;;20.00;60.30;;;;;;4998228;28;20029;-84
2022/10/16 06:03:37;;;;;;;22.08;12.35;;;20.00;60.00;;;;;;5015689;28;20038;-84
2022/10/16 06:06:14;;;;;;;19.65;12.70;;;19.90;60.40;;;;;;5014432;28;20033;-87
2022/10/16 06:08:41;;;;;;;19.05;12.30;;;19.90;60.40;;;;;;5014239;28;20121;-84
2022/10/16 06:11:10;;;;;;;15.13;11.85;;;19.90;60.70;;;;;;4998224;28;20026;-84
2022/10/16 06:13:36;;;;;;;19.48;12.43;;;19.80;60.60;;;;;;4998082;28;20169;-87
2022/10/16 06:16:02;;;;;;;18.08;11.60;;;19.40;61.20;;;;;;4998021;28;20041;-86
2022/10/16 06:18:29;;;;;;;16.83;11.23;;;18.90;62.10;;;;;;5015523;28;20054;-88
2022/10/16 06:20:56;;;;;;;15.88;11.10;;;18.30;63.70;;;;;;4998637;28;20060;-92
2022/10/16 06:23:22;;;;;;;16.00;10.55;;;18.10;63.90;;;;;;4998210;28;20484;-85
2022/10/16 06:25:47;;;;;;;16.23;11.52;;;18.00;64.00;;;;;;4994374;28;20023;-87
2022/10/16 06:28:14;;;;;;;17.60;11.27;;;18.00;64.40;;;;;;5010925;28;20034;-88
2022/10/16 06:30:40;;;;;;;15.32;11.20;;;18.30;64.30;;;;;;4994910;28;20048;-90
2022/10/16 06:33:10;;;;;;;15.80;11.05;;;18.40;63.40;;;;;;5011534;28;20030;-92
2022/10/16 06:35:36;;;;;;;16.88;10.40;;;18.30;63.60;;;;;;5010974;28;20046;-86
2022/10/16 06:38:02;;;;;;;17.60;10.50;;;18.20;64.10;;;;;;4996010;28;20037;-83
2022/10/16 06:40:28;;;;;;;16.02;10.45;;;18.40;63.20;;;;;;4995867;28;20018;-88
2022/10/16 06:42:55;;;;;;;15.15;10.40;;;18.30;63.90;;;;;;5011092;28;20034;-91
2022/10/16 06:45:21;;;;;;;14.52;11.05;;;18.60;64.00;;;;;;5003466;28;20405;-82
2022/10/16 06:47:46;;;;;;;14.57;10.35;;;19.00;62.70;;;;;;5014210;28;20496;-85
2022/10/16 06:50:12;;;;;;;17.80;10.48;;;19.30;61.80;;;;;;5014875;28;20084;-85
2022/10/16 06:52:38;;;;;;;19.00;10.77;;;19.30;61.30;;;;;;5013736;28;20034;-84
2022/10/16 06:55:04;;;;;;;18.35;11.48;;;19.50;61.00;;;;;;4997440;28;20018;-89
2022/10/16 06:57:29;;;;;;;17.58;11.45;;;19.70;60.70;;;;;;5014179;28;20026;-86
2022/10/16 06:59:55;;;;;;;18.02;10.70;;;19.60;61.00;;;;;;5014902;28;20029;-85
2022/10/16 07:02:21;;;;;;;15.95;11.15;;;19.40;61.30;;;;;;4997466;28;20037;-89
2022/10/16 07:04:46;;;;;;;17.15;11.52;;;18.90;62.00;;;;;;5013907;28;20018;-87
2022/10/16 07:07:12;;;;;;;17.80;11.52;;;18.80;62.80;;;;;;5014452;28;20033;-84
2022/10/16 07:09:38;;;;;;;14.50;10.25;;;19.10;62.60;;;;;;4997383;28;20392;-89
2022/10/16 07:12:04;;;;;;;14.10;9.43;;;19.10;62.00;;;;;;5014598;28;20042;-89
2022/10/16 07:14:29;;;;;;;14.57;10.45;;;18.80;62.50;;;;;;5014745;28;20431;-84
2022/10/16 07:16:55;;;;;;;16.67;10.90;;;18.80;63.00;;;;;;5013296;28;20033;-81
2022/10/16 07:19:21;;;;;;;15.40;9.95;;;19.10;62.80;;;;;;5014603;28;20358;-93
2022/10/16 07:21:47;;;;;;;18.38;10.32;;;19.50;61.60;;;;;;4997808;28;20473;-85
2022/10/16 07:24:15;;;;;;;14.25;10.10;;;19.40;61.80;;;;;;5014856;28;20056;-86
2022/10/16 07:26:42;;;;;;;13.73;10.15;;;19.80;61.30;;;;;;5013263;28;20396;-87
2022/10/16 07:29:14;;;;;;;14.82;11.00;;;20.30;60.20;;;;;;5014267;28;20022;-89
2022/10/16 07:31:43;;;;;;;16.60;10.32;;;20.60;60.10;;;;;;5014502;28;20045;-87
2022/10/16 07:34:10;;;;;;;15.90;10.00;;;20.30;60.00;;;;;;5013271;28;20065;-84
2022/10/16 07:36:36;;;;;;;15.98;10.50;;;20.30;60.60;;;;;;5013042;28;20104;-86
2022/10/16 07:39:02;;;;;;;14.90;9.63;;;20.60;60.10;;;;;;5014726;28;20081;-90
2022/10/16 07:41:28;;;;;;;15.52;9.95;;;20.80;59.50;;;;;;5012949;28;20033;-86
2022/10/16 07:43:54;;;;;;;13.38;9.75;;;20.90;59.20;;;;;;5012849;28;20021;-86
2022/10/16 07:46:22;;;;;;;13.93;9.13;;;20.80;59.50;;;;;;5013354;28;20381;-84
2022/10/16 07:48:48;;;;;;;14.07;9.43;;;20.60;59.30;;;;;;5012979;28;20160;-88
2022/10/16 07:51:19;;;;;;;15.88;9.15;;;20.60;59.40;;;;;;5013036;28;20064;-87
2022/10/16 07:53:45;;;;;;;12.82;9.10;;;20.90;59.90;;;;;;5013371;28;20415;-90
2022/10/16 07:56:11;;;;;;;11.82;8.98;;;21.00;57.20;;;;;;5013411;28;20546;-83
2022/10/16 07:58:37;;;;;;;13.90;8.45;;;20.50;58.20;;;;;;5013487;28;20087;-84
2022/10/16 08:01:08;;;;;;;11.90;8.40;;;20.30;58.60;;;;;;4996582;28;20042;-80
2022/10/16 08:03:34;;;;;;;13.63;9.20;;;20.30;58.10;;;;;;5013017;28;20080;-85
2022/10/16 08:06:00;;;;;;;13.35;9.23;;;20.10;59.30;;;;;;5013944;28;20022;-86
2022/10/16 08:08:27;;;;;;;16.27;9.07;;;20.40;58.40;;;;;;5013002;28;20493;-86
2022/10/16 08:10:53;;;;;;;13.93;9.57;;;20.50;58.40;;;;;;5012513;28;20029;-85
2022/10/16 08:13:19;;;;;;;12.38;8.90;;;20.80;57.70;;;;;;5012759;28;20030;-87
2022/10/16 08:15:46;;;;;;;12.68;8.85;;;21.00;57.10;;;;;;5012873;28;20022;-82
2022/10/16 08:18:13;;;;;;;12.10;8.65;;;21.20;56.60;;;;;;5013410;28;20084;-82
2022/10/16 08:20:40;;;;;;;13.85;8.85;;;20.80;57.00;;;;;;5012706;28;20025;-90
2022/10/16 08:23:06;;;;;;;14.50;8.50;;;21.00;57.60;;;;;;5016353;28;20034;-83
2022/10/16 08:25:46;;;;;;;13.00;8.65;;;21.30;56.90;;;;;;5016961;28;20520;-89
2022/10/16 08:28:12;;;;;;;13.15;8.80;;;21.40;56.30;;;;;;5016893;28;20022;-88
2022/10/16 08:30:38;;;;;;;14.35;9.23;;;21.30;57.00;;;;;;5017395;28;20045;-83
2022/10/16 08:33:04;;;;;;;14.38;8.98;;;22.00;56.00;;;;;;5016472;28;20026;-88
2022/10/16 08:35:30;;;;;;;15.73;9.60;;;22.20;56.00;;;;;;5017720;28;20026;-83
2022/10/16 08:37:56;;;;;;;17.80;9.75;;;22.50;55.20;;;;;;5016516;28;20053;-88
2022/10/16 08:40:31;;;;;;;11.88;8.40;;;22.40;54.90;;;;;;5017963;28;20388;-86
2022/10/16 08:43:19;;;;;;;13.70;9.27;;;22.20;56.50;;;;;;4999890;28;20161;-87
2022/10/16 08:45:56;;;;;;;15.32;8.95;;;21.70;56.10;;;;;;5017391;28;20026;-89
2022/10/16 08:48:45;;;;;;;13.35;8.77;;;22.00;55.90;;;;;;5000352;28;20028;-90
2022/10/16 08:51:31;;;;;;;11.68;8.07;;;21.80;56.40;;;;;;5015268;28;20032;-83
2022/10/16 08:54:06;;;;;;;11.70;8.23;;;22.00;55.40;;;;;;5016068;28;20107;-83
2022/10/16 08:56:33;;;;;;;13.07;9.07;;;22.00;55.30;;;;;;5016206;28;20021;-88
2022/10/16 08:58:59;;;;;;;14.18;8.85;;;21.90;55.90;;;;;;5016375;28;20022;-86
2022/10/16 09:01:41;;;;;;;14.10;8.93;;;21.50;56.50;;;;;;5016082;28;20030;-86
2022/10/16 09:04:09;;;;;;;11.77;8.57;;;21.50;58.20;;;;;;5016009;28;20033;-86
2022/10/16 09:06:53;;;;;;;14.10;9.23;;;21.60;55.90;;;;;;5017207;28;20088;-86
2022/10/16 09:09:33;;;;;;;15.07;8.57;;;21.80;56.60;;;;;;5000553;28;20065;-93
2022/10/16 09:12:03;;;;;;;13.27;8.70;;;22.10;55.60;;;;;;5017143;28;20028;-89
2022/10/16 09:14:49;;;;;;;12.75;9.38;;;22.30;56.30;;;;;;4999912;28;20061;-89
2022/10/16 09:17:26;;;;;;;14.00;9.23;;;22.80;55.30;;;;;;5016982;28;20045;-82
2022/10/16 09:20:36;;;;;;;13.60;8.82;;;23.10;54.60;;;;;;5015719;28;20072;-89
2022/10/16 09:23:04;;;;;;;14.65;9.05;;;22.70;54.40;;;;;;4918494;29;20248;-90
2022/10/16 09:25:31;;;;;;;13.10;9.10;;;22.40;55.20;;;;;;4918701;29;20040;-87
2022/10/16 09:27:56;;;;;;;12.98;8.82;;;22.20;56.50;;;;;;4918048;29;20032;-87
2022/10/16 09:30:25;;;;;;;15.00;9.43;;;22.70;56.10;;;;;;4918814;29;20060;-86
2022/10/16 09:32:53;;;;;;;14.43;8.45;;;23.00;55.10;;;;;;4918061;29;20039;-90
2022/10/16 09:35:35;;;;;;;13.10;9.38;;;23.20;54.90;;;;;;4919031;29;20040;-87
2022/10/16 09:38:00;;;;;;;12.30;8.48;;;23.40;55.10;;;;;;4918720;29;20031;-85
2022/10/16 09:40:32;;;;;;;17.77;8.98;;;23.00;53.70;;;;;;4918700;29;20044;-88
2022/10/16 09:43:10;;;;;;;12.57;8.60;;;22.50;55.30;;;;;;4918381;29;20126;-92
2022/10/16 09:45:35;;;;;;;13.18;8.98;;;22.90;55.00;;;;;;4917872;29;20033;-89
2022/10/16 09:48:11;;;;;;;13.45;8.80;;;23.40;55.30;;;;;;4917839;29;20040;-92
2022/10/16 09:50:36;;;;;;;12.32;8.77;;;23.60;54.60;;;;;;4918454;29;20119;-93
2022/10/16 09:53:13;;;;;;;14.05;9.05;;;24.10;53.80;;;;;;4919516;29;20123;-87
2022/10/16 09:55:56;;;;;;;10.68;8.60;;;24.00;53.50;;;;;;4917879;29;20036;-84
2022/10/16 09:58:24;;;;;;;12.82;9.02;;;24.10;53.60;;;;;;4917778;29;20039;-86
2022/10/16 10:00:53;;;;;;;13.32;8.93;;;24.40;53.80;;;;;;5000426;28;20073;-94
2022/10/16 10:03:46;;;;;;;11.35;8.13;;;24.70;53.10;;;;;;5017508;28;20040;-94
2022/10/16 10:06:25;;;;;;;19.73;8.38;;;24.60;53.20;;;;;;5014435;28;20516;-84
2022/10/16 10:09:22;;;;;;;11.48;8.75;;;23.90;53.20;;;;;;4998581;28;20032;-87
2022/10/16 10:11:55;;;;;;;12.57;8.13;;;23.50;55.00;;;;;;4996148;28;20477;-83
2022/10/16 10:14:44;;;;;;;12.70;8.75;;;23.90;53.80;;;;;;4998524;28;20030;-89
2022/10/16 10:17:20;;;;;;;14.18;9.02;;;23.90;53.90;;;;;;5014708;28;20049;-92
2022/10/16 10:20:08;;;;;;;12.95;9.02;;;24.30;53.90;;;;;;5015123;28;20034;-91
2022/10/16 10:22:47;;;;;;;15.55;9.45;;;24.60;53.20;;;;;;4999042;28;20044;-88
2022/10/16 10:25:13;;;;;;;11.52;8.38;;;24.50;53.30;;;;;;5015379;28;20400;-91
2022/10/16 10:27:54;;;;;;;12.38;8.90;;;24.20;53.60;;;;;;4998173;28;20501;-94
2022/10/16 10:30:22;;;;;;;;;;;24.40;53.50;;;;;;4999803;28;20385;-86
2022/10/16 10:33:14;;;;;;;12.75;8.18;;;24.80;53.20;;;;;;5015368;28;19913;-88
2022/10/16 10:36:12;;;;;;;14.50;9.02;;;25.20;52.70;;;;;;5014108;28;20477;-86
2022/10/16 10:39:08;;;;;;;13.43;8.98;;;25.50;51.80;;;;;;5015363;28;20052;-86
2022/10/16 10:41:58;;;;;;;13.38;8.68;;;25.80;52.90;;;;;;5014127;28;20029;-81
2022/10/16 10:44:43;;;;;;;10.90;8.25;;;26.00;52.10;;;;;;4997653;28;20492;-89
2022/10/16 10:47:09;;;;;;;11.85;8.20;;;25.80;51.50;;;;;;4998003;28;20030;-86
2022/10/16 10:49:42;;;;;;;13.18;8.70;;;25.80;51.50;;;;;;4998878;28;20026;-90
2022/10/16 10:52:14;;;;;;;15.57;8.90;;;25.80;52.20;;;;;;5013942;28;20061;-87
2022/10/16 10:54:52;;;;;;;15.10;8.38;;;26.00;52.00;;;;;;4998012;28;20056;-85
2022/10/16 10:57:37;;;;;;;11.88;8.07;;;26.10;50.90;;;;;;4999633;28;20029;-91
2022/10/16 11:00:19;;;;;;;12.10;8.00;;;25.30;52.60;;;;;;5014060;28;20032;-85
2022/10/16 11:02:58;;;;;;;15.02;8.45;;;25.30;52.20;;;;;;5013626;28;20061;-84
2022/10/16 11:05:58;;;;;;;10.60;7.65;;;25.60;51.90;;;;;;4998124;28;20390;-91
2022/10/16 11:08:34;;;;;;;13.07;7.70;;;25.60;52.00;;;;;;4955273;29;20043;-85
2022/10/16 11:11:08;;;;;;;15.55;8.57;;;25.30;52.10;;;;;;4954886;29;20111;-92
2022/10/16 11:13:46;;;;;;;13.60;8.38;;;24.30;54.00;;;;;;4954780;29;20067;-91
2022/10/16 11:16:18;;;;;;;12.02;8.02;;;23.90;54.50;;;;;;4939716;29;20537;-89
2022/10/16 11:18:46;;;;;;;10.63;7.65;;;24.40;54.30;;;;;;4954978;28;20066;-85
2022/10/16 11:21:21;;;;;;;11.13;7.70;;;24.60;53.30;;;;;;4938942;29;20047;-83
2022/10/16 11:24:00;;;;;;;12.07;7.90;;;24.50;53.40;;;;;;4955790;29;20170;-90
2022/10/16 11:26:32;;;;;;;11.15;8.10;;;24.70;52.80;;;;;;4954894;29;20035;-88
2022/10/16 11:29:01;;;;;;;11.35;8.00;;;24.80;53.20;;;;;;4954540;29;20034;-89
2022/10/16 11:31:43;;;;;;;11.32;7.68;;;25.10;52.80;;;;;;4954433;29;20031;-85
2022/10/16 11:34:38;;;;;;;12.80;7.90;;;25.50;52.10;;;;;;4954535;29;20495;-81
2022/10/16 11:37:40;;;;;;;14.38;8.35;;;26.00;52.00;;;;;;4950367;28;20561;-86
2022/10/16 11:40:31;;;;;;;13.52;8.55;;;26.00;51.90;;;;;;4937813;29;20110;-85
2022/10/16 11:43:14;;;;;;;10.13;7.90;;;25.90;52.00;;;;;;4957495;28;20446;-87
2022/10/16 11:45:44;;;;;;;10.90;7.22;;;26.20;51.90;;;;;;5010540;28;20023;-87
2022/10/16 11:48:30;;;;;;;10.90;7.32;;;26.50;51.70;;;;;;5010364;28;20080;-91
2022/10/16 11:51:11;;;;;;;9.48;6.32;;;26.30;51.60;;;;;;5010798;28;20034;-91
2022/10/16 11:53:53;;;;;;;9.35;7.18;;;25.70;50.60;;;;;;5009599;28;20117;-82
2022/10/16 11:56:20;;;;;;;8.88;6.90;;;25.80;51.80;;;;;;5009639;28;20512;-84
2022/10/16 11:59:07;;;;;;;11.88;6.72;;;25.80;52.50;;;;;;5010364;28;20074;-93
2022/10/16 12:01:40;;;;;;;10.88;6.93;;;25.90;51.20;;;;;;5010659;28;20377;-92
2022/10/16 12:04:48;;;;;;;11.93;6.60;;;26.00;50.70;;;;;;5009864;28;20057;-88
2022/10/16 12:07:24;;;;;;;9.70;6.20;;;25.70;50.20;;;;;;4954975;29;20023;-90
2022/10/16 12:09:50;;;;;;;9.13;5.93;;;25.50;50.10;;;;;;4955166;29;20403;-95
2022/10/16 12:12:34;;;;;;;8.43;5.97;;;25.40;50.40;;;;;;4954395;29;20035;-91
2022/10/16 12:15:02;;;;;;;10.00;5.82;;;25.40;50.00;;;;;;4956302;29;20118;-86
2022/10/16 12:17:38;;;;;;;9.68;5.65;;;25.40;50.20;;;;;;4954071;28;20176;-87
2022/10/16 12:20:12;;;;;;;8.63;5.93;;;25.10;50.50;;;;;;4954439;29;20033;-85
2022/10/16 12:22:48;;;;;;;8.25;6.13;;;24.90;49.90;;;;;;4954462;29;20043;-90
2022/10/16 12:25:22;;;;;;;10.23;5.80;;;24.80;50.70;;;;;;4955023;29;20095;-88
2022/10/16 12:27:58;;;;;;;9.10;6.00;;;24.80;51.30;;;;;;4954548;29;20038;-84
2022/10/16 12:30:26;;;;;;;8.88;5.53;;;24.70;51.10;;;;;;4954664;29;20532;-82
2022/10/16 12:33:23;;;;;;;10.23;5.82;;;24.70;50.90;;;;;;4954669;29;20031;-95
2022/10/16 12:35:49;;;;;;;8.68;5.90;;;25.20;51.10;;;;;;4950870;29;20403;-89
2022/10/16 12:38:45;;;;;;;8.63;5.57;;;25.70;50.10;;;;;;4977241;28;20035;-89
2022/10/16 12:41:25;;;;;;;9.60;5.68;;;25.70;49.90;;;;;;4974614;28;20109;-92
2022/10/16 12:43:50;;;;;;;10.93;6.60;;;25.60;49.70;;;;;;4991146;28;20042;-90
2022/10/16 12:46:16;;;;;;;12.95;7.07;;;25.30;50.20;;;;;;4991320;28;20027;-92
2022/10/16 12:48:44;;;;;;;11.73;6.88;;;25.40;50.80;;;;;;4991183;28;20031;-86
2022/10/16 12:51:35;;;;;;;10.70;6.50;;;25.40;50.20;;;;;;4990632;28;20030;-86